sensor_id;sensor_type;location;lat;lon;timestamp;pressure;altitude;pressure_sealevel;temperature
72405;BMP280;60395;52.020;113.548;2023-03-09T00:04:57;91418.84;;;-2.74
72405;BMP280;60395;52.020;113.548;2023-03-09T00:11:54;91413.19;;;-2.64
72405;BMP280;60395;52.020;113.548;2023-03-09T00:15:24;91415.28;;;-2.57
72405;BMP280;60395;52.020;113.548;2023-03-09T00:18:47;91424.38;;;-2.50
72405;BMP280;60395;52.020;113.548;2023-03-09T00:22:21;91421.34;;;-2.36
72405;BMP280;60395;52.020;113.548;2023-03-09T00:26:11;91424.06;;;-2.26
72405;BMP280;60395;52.020;113.548;2023-03-09T00:29:33;91426.72;;;-2.20
72405;BMP280;60395;52.020;113.548;2023-03-09T00:32:58;91431.91;;;-2.18
72405;BMP280;60395;52.020;113.548;2023-03-09T00:36:13;91436.50;;;-2.10
72405;BMP280;60395;52.020;113.548;2023-03-09T00:39:30;91448.06;;;-2.11
72405;BMP280;60395;52.020;113.548;2023-03-09T00:42:54;91446.13;;;-2.13
72405;BMP280;60395;52.020;113.548;2023-03-09T00:46:09;91456.31;;;-2.21
72405;BMP280;60395;52.020;113.548;2023-03-09T00:49:14;91474.31;;;-2.19
72405;BMP280;60395;52.020;113.548;2023-03-09T00:52:18;91468.44;;;-2.25
72405;BMP280;60395;52.020;113.548;2023-03-09T00:55:22;91465.88;;;-2.25
72405;BMP280;60395;52.020;113.548;2023-03-09T00:58:26;91456.38;;;-2.15
72405;BMP280;60395;52.020;113.548;2023-03-09T01:01:32;91443.00;;;-2.05
72405;BMP280;60395;52.020;113.548;2023-03-09T01:04:36;91434.84;;;-1.87
72405;BMP280;60395;52.020;113.548;2023-03-09T01:07:42;91420.81;;;-1.82
72405;BMP280;60395;52.020;113.548;2023-03-09T01:10:49;91435.03;;;-1.75
72405;BMP280;60395;52.020;113.548;2023-03-09T01:13:53;91439.72;;;-1.61
72405;BMP280;60395;52.020;113.548;2023-03-09T01:16:57;91455.13;;;-1.63
72405;BMP280;60395;52.020;113.548;2023-03-09T01:20:01;91465.38;;;-1.68
72405;BMP280;60395;52.020;113.548;2023-03-09T01:23:04;91480.13;;;-1.72
72405;BMP280;60395;52.020;113.548;2023-03-09T01:26:09;91483.34;;;-1.70
72405;BMP280;60395;52.020;113.548;2023-03-09T01:29:12;91491.38;;;-1.45
72405;BMP280;60395;52.020;113.548;2023-03-09T01:32:16;91505.38;;;-1.02
72405;BMP280;60395;52.020;113.548;2023-03-09T01:35:20;91492.25;;;-0.60
72405;BMP280;60395;52.020;113.548;2023-03-09T01:38:29;91478.19;;;-0.47
72405;BMP280;60395;52.020;113.548;2023-03-09T01:41:36;91462.63;;;-0.59
72405;BMP280;60395;52.020;113.548;2023-03-09T01:44:41;91447.06;;;-0.69
72405;BMP280;60395;52.020;113.548;2023-03-09T01:47:45;91468.34;;;-0.69
72405;BMP280;60395;52.020;113.548;2023-03-09T01:50:49;91469.78;;;-0.52
72405;BMP280;60395;52.020;113.548;2023-03-09T01:53:53;91495.66;;;-0.37
72405;BMP280;60395;52.020;113.548;2023-03-09T01:57:05;91511.34;;;-0.13
72405;BMP280;60395;52.020;113.548;2023-03-09T02:00:19;91527.72;;;0.24
72405;BMP280;60395;52.020;113.548;2023-03-09T02:03:35;91532.44;;;0.60
72405;BMP280;60395;52.020;113.548;2023-03-09T02:06:42;91531.19;;;0.73
72405;BMP280;60395;52.020;113.548;2023-03-09T02:09:57;91529.97;;;0.86
72405;BMP280;60395;52.020;113.548;2023-03-09T02:13:09;91532.03;;;1.34
72405;BMP280;60395;52.020;113.548;2023-03-09T02:16:14;91537.25;;;1.93
72405;BMP280;60395;52.020;113.548;2023-03-09T02:19:33;91538.50;;;2.42
72405;BMP280;60395;52.020;113.548;2023-03-09T02:22:40;91531.97;;;2.62
72405;BMP280;60395;52.020;113.548;2023-03-09T02:25:49;91528.06;;;2.67
72405;BMP280;60395;52.020;113.548;2023-03-09T02:28:59;91535.25;;;2.50
72405;BMP280;60395;52.020;113.548;2023-03-09T02:32:04;91540.44;;;2.32
72405;BMP280;60395;52.020;113.548;2023-03-09T02:35:08;91529.47;;;2.23
72405;BMP280;60395;52.020;113.548;2023-03-09T02:38:17;91540.47;;;2.24
72405;BMP280;60395;52.020;113.548;2023-03-09T02:41:20;91527.53;;;2.22
72405;BMP280;60395;52.020;113.548;2023-03-09T02:44:25;91534.66;;;2.25
72405;BMP280;60395;52.020;113.548;2023-03-09T02:47:29;91524.25;;;2.37
72405;BMP280;60395;52.020;113.548;2023-03-09T02:50:33;91540.44;;;2.44
72405;BMP280;60395;52.020;113.548;2023-03-09T02:53:36;91541.66;;;2.63
72405;BMP280;60395;52.020;113.548;2023-03-09T02:56:40;91546.78;;;2.87
72405;BMP280;60395;52.020;113.548;2023-03-09T02:59:43;91537.00;;;3.02
72405;BMP280;60395;52.020;113.548;2023-03-09T03:02:47;91536.34;;;2.99
72405;BMP280;60395;52.020;113.548;2023-03-09T03:05:52;91538.31;;;2.95
72405;BMP280;60395;52.020;113.548;2023-03-09T03:08:55;91545.44;;;3.02
72405;BMP280;60395;52.020;113.548;2023-03-09T03:11:59;91534.38;;;3.08
72405;BMP280;60395;52.020;113.548;2023-03-09T03:15:04;91547.94;;;3.17
72405;BMP280;60395;52.020;113.548;2023-03-09T03:18:08;91543.31;;;3.31
72405;BMP280;60395;52.020;113.548;2023-03-09T03:21:12;91551.72;;;3.40
72405;BMP280;60395;52.020;113.548;2023-03-09T03:24:16;91549.03;;;3.50
72405;BMP280;60395;52.020;113.548;2023-03-09T03:27:21;91537.94;;;3.62
72405;BMP280;60395;52.020;113.548;2023-03-09T03:30:24;91535.22;;;3.78
72405;BMP280;60395;52.020;113.548;2023-03-09T03:33:30;91539.03;;;3.91
72405;BMP280;60395;52.020;113.548;2023-03-09T03:36:34;91540.16;;;4.10
72405;BMP280;60395;52.020;113.548;2023-03-09T03:39:37;91533.47;;;4.31
72405;BMP280;60395;52.020;113.548;2023-03-09T03:42:41;91533.28;;;4.50
72405;BMP280;60395;52.020;113.548;2023-03-09T03:45:46;91542.22;;;4.65
72405;BMP280;60395;52.020;113.548;2023-03-09T03:48:50;91534.88;;;4.81
72405;BMP280;60395;52.020;113.548;2023-03-09T03:51:54;91531.41;;;4.99
72405;BMP280;60395;52.020;113.548;2023-03-09T03:54:57;91535.81;;;5.11
72405;BMP280;60395;52.020;113.548;2023-03-09T03:58:03;91534.34;;;5.24
72405;BMP280;60395;52.020;113.548;2023-03-09T04:01:09;91536.78;;;5.36
72405;BMP280;60395;52.020;113.548;2023-03-09T04:04:12;91530.09;;;5.49
72405;BMP280;60395;52.020;113.548;2023-03-09T04:07:21;91528.59;;;5.62
72405;BMP280;60395;52.020;113.548;2023-03-09T04:10:25;91523.28;;;5.70
72405;BMP280;60395;52.020;113.548;2023-03-09T04:13:28;91527.06;;;5.77
72405;BMP280;60395;52.020;113.548;2023-03-09T04:16:32;91534.66;;;5.90
72405;BMP280;60395;52.020;113.548;2023-03-09T04:19:35;91535.22;;;5.96
72405;BMP280;60395;52.020;113.548;2023-03-09T04:22:38;91548.69;;;6.11
72405;BMP280;60395;52.020;113.548;2023-03-09T04:26:15;91549.75;;;6.24
72405;BMP280;60395;52.020;113.548;2023-03-09T04:29:46;91555.06;;;6.18
72405;BMP280;60395;52.020;113.548;2023-03-09T04:32:52;91554.09;;;6.38
72405;BMP280;60395;52.020;113.548;2023-03-09T04:35:56;91558.19;;;6.61
72405;BMP280;60395;52.020;113.548;2023-03-09T04:39:05;91552.69;;;6.78
72405;BMP280;60395;52.020;113.548;2023-03-09T04:42:10;91559.41;;;7.01
72405;BMP280;60395;52.020;113.548;2023-03-09T04:45:14;91565.53;;;7.20
72405;BMP280;60395;52.020;113.548;2023-03-09T04:48:19;91562.13;;;7.28
72405;BMP280;60395;52.020;113.548;2023-03-09T04:51:23;91577.69;;;7.32
72405;BMP280;60395;52.020;113.548;2023-03-09T04:54:29;91584.06;;;7.39
72405;BMP280;60395;52.020;113.548;2023-03-09T04:57:32;91581.25;;;7.49
72405;BMP280;60395;52.020;113.548;2023-03-09T05:00:36;91575.94;;;7.53
72405;BMP280;60395;52.020;113.548;2023-03-09T05:03:42;91568.63;;;7.60
72405;BMP280;60395;52.020;113.548;2023-03-09T05:06:47;91559.91;;;7.69
72405;BMP280;60395;52.020;113.548;2023-03-09T05:09:52;91553.38;;;7.68
72405;BMP280;60395;52.020;113.548;2023-03-09T05:12:56;91563.59;;;7.79
72405;BMP280;60395;52.020;113.548;2023-03-09T05:16:06;91551.00;;;7.87
72405;BMP280;60395;52.020;113.548;2023-03-09T05:19:15;91543.88;;;7.86
72405;BMP280;60395;52.020;113.548;2023-03-09T05:22:18;91542.44;;;7.89
72405;BMP280;60395;52.020;113.548;2023-03-09T05:25:22;91539.13;;;7.92
72405;BMP280;60395;52.020;113.548;2023-03-09T05:28:27;91537.06;;;7.97
72405;BMP280;60395;52.020;113.548;2023-03-09T05:31:33;91536.34;;;7.98
72405;BMP280;60395;52.020;113.548;2023-03-09T05:34:36;91533.50;;;8.08
72405;BMP280;60395;52.020;113.548;2023-03-09T05:37:40;91547.06;;;8.15
72405;BMP280;60395;52.020;113.548;2023-03-09T05:40:50;91543.19;;;8.12
72405;BMP280;60395;52.020;113.548;2023-03-09T05:43:59;91535.63;;;8.02
72405;BMP280;60395;52.020;113.548;2023-03-09T05:47:04;91534.56;;;7.91
72405;BMP280;60395;52.020;113.548;2023-03-09T05:50:08;91537.19;;;7.91
72405;BMP280;60395;52.020;113.548;2023-03-09T05:53:13;91531.28;;;7.92
72405;BMP280;60395;52.020;113.548;2023-03-09T05:56:18;91533.16;;;7.96
72405;BMP280;60395;52.020;113.548;2023-03-09T05:59:24;91525.16;;;8.02
72405;BMP280;60395;52.020;113.548;2023-03-09T06:02:27;91536.16;;;8.06
72405;BMP280;60395;52.020;113.548;2023-03-09T06:05:30;91539.38;;;8.09
72405;BMP280;60395;52.020;113.548;2023-03-09T06:08:34;91534.03;;;8.13
72405;BMP280;60395;52.020;113.548;2023-03-09T06:11:43;91547.19;;;8.09
72405;BMP280;60395;52.020;113.548;2023-03-09T06:14:48;91549.50;;;8.21
72405;BMP280;60395;52.020;113.548;2023-03-09T06:17:54;91542.69;;;8.32
72405;BMP280;60395;52.020;113.548;2023-03-09T06:21:04;91548.22;;;8.47
72405;BMP280;60395;52.020;113.548;2023-03-09T06:24:09;91550.41;;;8.38
72405;BMP280;60395;52.020;113.548;2023-03-09T06:27:13;91546.56;;;8.35
72405;BMP280;60395;52.020;113.548;2023-03-09T06:30:16;91553.53;;;8.43
72405;BMP280;60395;52.020;113.548;2023-03-09T06:33:22;91544.53;;;8.38
72405;BMP280;60395;52.020;113.548;2023-03-09T06:36:32;91543.88;;;8.37
72405;BMP280;60395;52.020;113.548;2023-03-09T06:39:38;91540.19;;;8.28
72405;BMP280;60395;52.020;113.548;2023-03-09T06:42:45;91536.19;;;8.31
72405;BMP280;60395;52.020;113.548;2023-03-09T06:45:49;91538.66;;;8.37
72405;BMP280;60395;52.020;113.548;2023-03-09T06:48:53;91548.22;;;8.47
72405;BMP280;60395;52.020;113.548;2023-03-09T06:51:56;91557.88;;;8.52
72405;BMP280;60395;52.020;113.548;2023-03-09T06:55:00;91562.84;;;8.62
72405;BMP280;60395;52.020;113.548;2023-03-09T06:58:20;91557.19;;;8.79
72405;BMP280;60395;52.020;113.548;2023-03-09T07:01:23;91568.84;;;8.82
72405;BMP280;60395;52.020;113.548;2023-03-09T07:04:30;91559.00;;;8.84
72405;BMP280;60395;52.020;113.548;2023-03-09T07:07:33;91558.09;;;8.69
72405;BMP280;60395;52.020;113.548;2023-03-09T07:10:37;91567.84;;;8.70
72405;BMP280;60395;52.020;113.548;2023-03-09T07:13:40;91577.13;;;8.67
72405;BMP280;60395;52.020;113.548;2023-03-09T07:16:53;91586.94;;;8.67
72405;BMP280;60395;52.020;113.548;2023-03-09T07:19:57;91587.59;;;8.67
72405;BMP280;60395;52.020;113.548;2023-03-09T07:23:00;91606.72;;;8.60
72405;BMP280;60395;52.020;113.548;2023-03-09T07:26:04;91618.69;;;8.53
72405;BMP280;60395;52.020;113.548;2023-03-09T07:29:08;91622.16;;;8.45
72405;BMP280;60395;52.020;113.548;2023-03-09T07:32:11;91632.75;;;8.39
72405;BMP280;60395;52.020;113.548;2023-03-09T07:35:15;91619.53;;;8.45
72405;BMP280;60395;52.020;113.548;2023-03-09T07:38:21;91620.19;;;8.46
72405;BMP280;60395;52.020;113.548;2023-03-09T07:41:24;91616.28;;;8.45
72405;BMP280;60395;52.020;113.548;2023-03-09T07:44:28;91618.94;;;8.43
72405;BMP280;60395;52.020;113.548;2023-03-09T07:47:32;91607.31;;;8.38
72405;BMP280;60395;52.020;113.548;2023-03-09T07:50:35;91610.75;;;8.30
72405;BMP280;60395;52.020;113.548;2023-03-09T07:53:39;91599.66;;;8.03
72405;BMP280;60395;52.020;113.548;2023-03-09T07:56:42;91605.06;;;7.95
72405;BMP280;60395;52.020;113.548;2023-03-09T07:59:53;91600.47;;;7.95
72405;BMP280;60395;52.020;113.548;2023-03-09T08:02:59;91586.75;;;7.95
72405;BMP280;60395;52.020;113.548;2023-03-09T08:06:03;91584.72;;;7.97
72405;BMP280;60395;52.020;113.548;2023-03-09T08:09:11;91581.34;;;8.03
72405;BMP280;60395;52.020;113.548;2023-03-09T08:12:15;91571.03;;;7.97
72405;BMP280;60395;52.020;113.548;2023-03-09T08:15:18;91579.66;;;7.91
72405;BMP280;60395;52.020;113.548;2023-03-09T08:18:22;91583.22;;;7.78
72405;BMP280;60395;52.020;113.548;2023-03-09T08:21:25;91594.59;;;7.66
72405;BMP280;60395;52.020;113.548;2023-03-09T08:24:28;91596.66;;;7.61
72405;BMP280;60395;52.020;113.548;2023-03-09T08:27:40;91603.44;;;7.50
72405;BMP280;60395;52.020;113.548;2023-03-09T08:30:43;91611.47;;;7.40
72405;BMP280;60395;52.020;113.548;2023-03-09T08:33:47;91624.72;;;7.30
72405;BMP280;60395;52.020;113.548;2023-03-09T08:36:56;91628.72;;;7.27
72405;BMP280;60395;52.020;113.548;2023-03-09T08:39:59;91628.88;;;7.19
72405;BMP280;60395;52.020;113.548;2023-03-09T08:43:03;91637.44;;;7.15
72405;BMP280;60395;52.020;113.548;2023-03-09T08:46:06;91629.00;;;7.13
72405;BMP280;60395;52.020;113.548;2023-03-09T08:49:10;91627.13;;;7.07
72405;BMP280;60395;52.020;113.548;2023-03-09T08:52:14;91633.69;;;7.06
72405;BMP280;60395;52.020;113.548;2023-03-09T08:55:18;91631.16;;;7.02
72405;BMP280;60395;52.020;113.548;2023-03-09T08:58:21;91625.31;;;7.00
72405;BMP280;60395;52.020;113.548;2023-03-09T09:01:24;91627.38;;;6.95
72405;BMP280;60395;52.020;113.548;2023-03-09T09:04:28;91630.66;;;6.94
72405;BMP280;60395;52.020;113.548;2023-03-09T09:07:31;91637.91;;;6.91
72405;BMP280;60395;52.020;113.548;2023-03-09T09:10:38;91640.59;;;6.87
72405;BMP280;60395;52.020;113.548;2023-03-09T09:13:45;91641.38;;;6.80
72405;BMP280;60395;52.020;113.548;2023-03-09T09:16:49;91641.44;;;6.76
72405;BMP280;60395;52.020;113.548;2023-03-09T09:19:53;91644.13;;;6.71
72405;BMP280;60395;52.020;113.548;2023-03-09T09:22:59;91642.91;;;6.66
72405;BMP280;60395;52.020;113.548;2023-03-09T09:26:03;91636.44;;;6.61
72405;BMP280;60395;52.020;113.548;2023-03-09T09:29:07;91633.34;;;6.55
72405;BMP280;60395;52.020;113.548;2023-03-09T09:32:10;91621.06;;;6.45
72405;BMP280;60395;52.020;113.548;2023-03-09T09:35:14;91617.97;;;6.39
72405;BMP280;60395;52.020;113.548;2023-03-09T09:38:17;91620.00;;;6.32
72405;BMP280;60395;52.020;113.548;2023-03-09T09:42:01;91614.91;;;6.26
72405;BMP280;60395;52.020;113.548;2023-03-09T09:45:07;91610.44;;;6.18
72405;BMP280;60395;52.020;113.548;2023-03-09T09:48:16;91612.56;;;6.10
72405;BMP280;60395;52.020;113.548;2023-03-09T09:58:53;91644.88;;;5.82
72405;BMP280;60395;52.020;113.548;2023-03-09T10:02:22;91643.00;;;5.74
72405;BMP280;60395;52.020;113.548;2023-03-09T10:09:23;91647.25;;;5.49
72405;BMP280;60395;52.020;113.548;2023-03-09T10:12:23;91665.63;;;5.37
72405;BMP280;60395;52.020;113.548;2023-03-09T10:15:29;91661.13;;;5.31
72405;BMP280;60395;52.020;113.548;2023-03-09T10:18:36;91665.69;;;5.31
72405;BMP280;60395;52.020;113.548;2023-03-09T10:21:55;91671.53;;;5.34
72405;BMP280;60395;52.020;113.548;2023-03-09T10:24:59;91662.41;;;5.35
72405;BMP280;60395;52.020;113.548;2023-03-09T10:28:10;91661.78;;;5.34
72405;BMP280;60395;52.020;113.548;2023-03-09T10:31:52;91655.28;;;5.31
72405;BMP280;60395;52.020;113.548;2023-03-09T10:35:07;91657.25;;;5.30
72405;BMP280;60395;52.020;113.548;2023-03-09T10:38:16;91643.63;;;5.26
72405;BMP280;60395;52.020;113.548;2023-03-09T10:41:20;91633.94;;;5.22
72405;BMP280;60395;52.020;113.548;2023-03-09T10:44:24;91635.91;;;5.20
72405;BMP280;60395;52.020;113.548;2023-03-09T10:51:02;91646.38;;;5.14
72405;BMP280;60395;52.020;113.548;2023-03-09T10:54:30;91655.50;;;5.11
72405;BMP280;60395;52.020;113.548;2023-03-09T10:57:35;91657.47;;;5.08
72405;BMP280;60395;52.020;113.548;2023-03-09T11:03:52;91661.50;;;5.01
72405;BMP280;60395;52.020;113.548;2023-03-09T11:07:00;91645.19;;;5.05
72405;BMP280;60395;52.020;113.548;2023-03-09T11:10:23;91623.19;;;4.94
72405;BMP280;60395;52.020;113.548;2023-03-09T11:13:27;91626.34;;;5.02
72405;BMP280;60395;52.020;113.548;2023-03-09T11:16:32;91623.13;;;5.00
72405;BMP280;60395;52.020;113.548;2023-03-09T11:19:37;91627.72;;;4.95
72405;BMP280;60395;52.020;113.548;2023-03-09T11:23:15;91635.50;;;4.97
72405;BMP280;60395;52.020;113.548;2023-03-09T11:26:42;91636.91;;;4.88
72405;BMP280;60395;52.020;113.548;2023-03-09T11:30:06;91637.63;;;4.80
72405;BMP280;60395;52.020;113.548;2023-03-09T11:33:17;91645.47;;;4.74
72405;BMP280;60395;52.020;113.548;2023-03-09T11:36:32;91655.31;;;4.68
72405;BMP280;60395;52.020;113.548;2023-03-09T11:40:26;91666.38;;;4.66
72405;BMP280;60395;52.020;113.548;2023-03-09T11:43:27;91659.25;;;4.61
72405;BMP280;60395;52.020;113.548;2023-03-09T11:46:32;91661.91;;;4.55
72405;BMP280;60395;52.020;113.548;2023-03-09T11:49:38;91687.94;;;4.53
72405;BMP280;60395;52.020;113.548;2023-03-09T11:53:09;91704.84;;;4.52
72405;BMP280;60395;52.020;113.548;2023-03-09T11:56:27;91721.75;;;4.51
72405;BMP280;60395;52.020;113.548;2023-03-09T11:59:49;91732.84;;;4.41
72405;BMP280;60395;52.020;113.548;2023-03-09T12:03:00;91738.16;;;4.27
72405;BMP280;60395;52.020;113.548;2023-03-09T12:06:21;91740.19;;;4.14
72405;BMP280;60395;52.020;113.548;2023-03-09T12:09:48;91744.78;;;4.08
72405;BMP280;60395;52.020;113.548;2023-03-09T12:13:20;91753.22;;;4.06
72405;BMP280;60395;52.020;113.548;2023-03-09T12:16:28;91758.41;;;4.08
72405;BMP280;60395;52.020;113.548;2023-03-09T12:19:35;91762.28;;;4.11
72405;BMP280;60395;52.020;113.548;2023-03-09T12:22:39;91764.16;;;4.19
72405;BMP280;60395;52.020;113.548;2023-03-09T12:25:55;91769.34;;;4.27
72405;BMP280;60395;52.020;113.548;2023-03-09T12:29:14;91769.97;;;4.31
72405;BMP280;60395;52.020;113.548;2023-03-09T12:38:28;91767.31;;;4.37
72405;BMP280;60395;52.020;113.548;2023-03-09T12:41:59;91758.22;;;4.38
72405;BMP280;60395;52.020;113.548;2023-03-09T12:45:25;91758.28;;;4.34
72405;BMP280;60395;52.020;113.548;2023-03-09T12:48:28;91762.75;;;4.38
72405;BMP280;60395;52.020;113.548;2023-03-09T12:51:36;91751.13;;;4.35
72405;BMP280;60395;52.020;113.548;2023-03-09T12:54:42;91745.88;;;4.39
72405;BMP280;60395;52.020;113.548;2023-03-09T12:57:47;91753.00;;;4.43
72405;BMP280;60395;52.020;113.548;2023-03-09T13:07:17;91758.22;;;4.38
72405;BMP280;60395;52.020;113.548;2023-03-09T13:10:28;91760.81;;;4.36
72405;BMP280;60395;52.020;113.548;2023-03-09T13:13:38;91761.50;;;4.35
72405;BMP280;60395;52.020;113.548;2023-03-09T13:19:54;91769.38;;;4.23
72405;BMP280;60395;52.020;113.548;2023-03-09T13:23:04;91774.56;;;4.21
72405;BMP280;60395;52.020;113.548;2023-03-09T13:26:12;91774.56;;;4.21
72405;BMP280;60395;52.020;113.548;2023-03-09T13:29:18;91762.91;;;4.14
72405;BMP280;60395;52.020;113.548;2023-03-09T13:32:30;91768.13;;;4.14
72405;BMP280;60395;52.020;113.548;2023-03-09T13:35:41;91774.59;;;4.15
72405;BMP280;60395;52.020;113.548;2023-03-09T13:38:48;91780.47;;;4.11
72405;BMP280;60395;52.020;113.548;2023-03-09T13:41:52;91800.59;;;4.09
72405;BMP280;60395;52.020;113.548;2023-03-09T13:44:57;91803.81;;;4.15
72405;BMP280;60395;52.020;113.548;2023-03-09T13:48:04;91814.25;;;4.09
72405;BMP280;60395;52.020;113.548;2023-03-09T13:51:29;91818.19;;;4.02
72405;BMP280;60395;52.020;113.548;2023-03-09T13:54:51;91820.13;;;3.98
72405;BMP280;60395;52.020;113.548;2023-03-09T13:58:15;91818.84;;;3.94
72405;BMP280;60395;52.020;113.548;2023-03-09T14:01:25;91818.88;;;3.92
72405;BMP280;60395;52.020;113.548;2023-03-09T14:04:28;91808.50;;;3.90
72405;BMP280;60395;52.020;113.548;2023-03-09T14:10:53;91813.69;;;3.88
72405;BMP280;60395;52.020;113.548;2023-03-09T14:14:01;91834.47;;;3.90
72405;BMP280;60395;52.020;113.548;2023-03-09T14:17:16;91839.66;;;3.88
72405;BMP280;60395;52.020;113.548;2023-03-09T14:20:23;91853.94;;;3.87
72405;BMP280;60395;52.020;113.548;2023-03-09T14:23:41;91835.75;;;3.87
72405;BMP280;60395;52.020;113.548;2023-03-09T14:26:45;91817.59;;;3.89
72405;BMP280;60395;52.020;113.548;2023-03-09T14:29:49;91824.75;;;3.85
72405;BMP280;60395;52.020;113.548;2023-03-09T14:33:04;91824.09;;;3.80
72405;BMP280;60395;52.020;113.548;2023-03-09T14:36:16;91819.56;;;3.77
72405;BMP280;60395;52.020;113.548;2023-03-09T14:39:32;91827.38;;;3.67
72405;BMP280;60395;52.020;113.548;2023-03-09T14:42:36;91831.28;;;3.62
72405;BMP280;60395;52.020;113.548;2023-03-09T14:45:39;91842.31;;;3.60
72405;BMP280;60395;52.020;113.548;2023-03-09T14:48:49;91847.50;;;3.60
72405;BMP280;60395;52.020;113.548;2023-03-09T14:51:54;91867.00;;;3.57
72405;BMP280;60395;52.020;113.548;2023-03-09T14:54:59;91867.00;;;3.61
72405;BMP280;60395;52.020;113.548;2023-03-09T14:58:08;91864.38;;;3.65
72405;BMP280;60395;52.020;113.548;2023-03-09T15:01:12;91865.03;;;3.62
72405;BMP280;60395;52.020;113.548;2023-03-09T15:04:17;91854.66;;;3.62
72405;BMP280;60395;52.020;113.548;2023-03-09T15:07:20;91841.69;;;3.58
72405;BMP280;60395;52.020;113.548;2023-03-09T15:10:25;91849.47;;;3.56
72405;BMP280;60395;52.020;113.548;2023-03-09T15:13:30;91861.16;;;3.53
72405;BMP280;60395;52.020;113.548;2023-03-09T15:16:34;91878.03;;;3.52
72405;BMP280;60395;52.020;113.548;2023-03-09T15:19:37;91866.34;;;3.48
72405;BMP280;60395;52.020;113.548;2023-03-09T15:22:41;91862.47;;;3.45
72405;BMP280;60395;52.020;113.548;2023-03-09T15:25:44;91880.66;;;3.45
72405;BMP280;60395;52.020;113.548;2023-03-09T15:28:50;91878.69;;;3.42
72405;BMP280;60395;52.020;113.548;2023-03-09T15:31:53;91879.34;;;3.42
72405;BMP280;60395;52.020;113.548;2023-03-09T15:34:57;91885.19;;;3.39
72405;BMP280;60395;52.020;113.548;2023-03-09T15:38:00;91888.44;;;3.41
72405;BMP280;60395;52.020;113.548;2023-03-09T15:41:05;91893.59;;;3.31
72405;BMP280;60395;52.020;113.548;2023-03-09T15:44:09;91900.09;;;3.18
72405;BMP280;60395;52.020;113.548;2023-03-09T15:47:12;91898.16;;;3.09
72405;BMP280;60395;52.020;113.548;2023-03-09T15:50:17;91889.72;;;3.08
72405;BMP280;60395;52.020;113.548;2023-03-09T15:53:20;91884.50;;;2.98
72405;BMP280;60395;52.020;113.548;2023-03-09T15:56:23;91894.91;;;2.92
72405;BMP280;60395;52.020;113.548;2023-03-09T15:59:27;91903.31;;;2.88
72405;BMP280;60395;52.020;113.548;2023-03-09T16:02:30;91897.44;;;2.94
72405;BMP280;60395;52.020;113.548;2023-03-09T16:05:33;91891.00;;;3.01
72405;BMP280;60395;52.020;113.548;2023-03-09T16:08:36;91908.50;;;2.96
72405;BMP280;60395;52.020;113.548;2023-03-09T16:11:39;91898.75;;;2.83
72405;BMP280;60395;52.020;113.548;2023-03-09T16:14:43;91900.00;;;2.62
72405;BMP280;60395;52.020;113.548;2023-03-09T16:17:46;91901.28;;;2.58
72405;BMP280;60395;52.020;113.548;2023-03-09T16:20:50;91908.44;;;2.62
72405;BMP280;60395;52.020;113.548;2023-03-09T16:23:56;91915.50;;;2.49
72405;BMP280;60395;52.020;113.548;2023-03-09T16:26:59;91916.09;;;2.36
72405;BMP280;60395;52.020;113.548;2023-03-09T16:30:02;91923.13;;;2.15
72405;BMP280;60395;52.020;113.548;2023-03-09T16:33:06;91923.69;;;1.97
72405;BMP280;60395;52.020;113.548;2023-03-09T16:36:09;91932.66;;;1.86
72405;BMP280;60395;52.020;113.548;2023-03-09T16:39:12;91932.56;;;1.70
72405;BMP280;60395;52.020;113.548;2023-03-09T16:42:16;91931.25;;;1.65
72405;BMP280;60395;52.020;113.548;2023-03-09T16:45:20;91933.09;;;1.54
72405;BMP280;60395;52.020;113.548;2023-03-09T16:48:24;91927.94;;;1.56
72405;BMP280;60395;52.020;113.548;2023-03-09T16:51:27;91943.41;;;1.48
72405;BMP280;60395;52.020;113.548;2023-03-09T16:54:31;91932.97;;;1.40
72405;BMP280;60395;52.020;113.548;2023-03-09T16:57:34;91938.13;;;1.38
72405;BMP280;60395;52.020;113.548;2023-03-09T17:00:39;91941.31;;;1.28
72405;BMP280;60395;52.020;113.548;2023-03-09T17:03:42;91937.38;;;1.23
72405;BMP280;60395;52.020;113.548;2023-03-09T17:06:46;91938.66;;;1.20
72405;BMP280;60395;52.020;113.548;2023-03-09T17:09:49;91929.59;;;1.19
72405;BMP280;60395;52.020;113.548;2023-03-09T17:12:53;91929.63;;;1.23
72405;BMP280;60395;52.020;113.548;2023-03-09T17:15:58;91944.56;;;1.33
72405;BMP280;60395;52.020;113.548;2023-03-09T17:19:01;91943.28;;;1.36
72405;BMP280;60395;52.020;113.548;2023-03-09T17:22:04;91948.47;;;1.38
72405;BMP280;60395;52.020;113.548;2023-03-09T17:25:17;91952.38;;;1.41
72405;BMP280;60395;52.020;113.548;2023-03-09T17:28:21;91958.00;;;1.17
72405;BMP280;60395;52.020;113.548;2023-03-09T17:31:24;91958.00;;;1.17
72405;BMP280;60395;52.020;113.548;2023-03-09T17:34:27;91954.69;;;1.11
72405;BMP280;60395;52.020;113.548;2023-03-09T17:37:32;91954.69;;;1.11
72405;BMP280;60395;52.020;113.548;2023-03-09T17:40:40;91957.22;;;1.05
72405;BMP280;60395;52.020;113.548;2023-03-09T17:43:43;91960.44;;;1.01
72405;BMP280;60395;52.020;113.548;2023-03-09T17:46:48;91966.22;;;1.00
72405;BMP280;60395;52.020;113.548;2023-03-09T17:49:52;91963.66;;;1.02
72405;BMP280;60395;52.020;113.548;2023-03-09T17:52:55;91963.03;;;1.05
72405;BMP280;60395;52.020;113.548;2023-03-09T17:56:00;91952.69;;;1.03
72405;BMP280;60395;52.020;113.548;2023-03-09T17:59:04;91959.72;;;0.97
72405;BMP280;60395;52.020;113.548;2023-03-09T18:02:10;91967.50;;;0.97
72405;BMP280;60395;52.020;113.548;2023-03-09T18:05:14;91955.88;;;1.00
72405;BMP280;60395;52.020;113.548;2023-03-09T18:08:17;91957.28;;;1.09
72405;BMP280;60395;52.020;113.548;2023-03-09T18:11:24;91966.88;;;0.98
72405;BMP280;60395;52.020;113.548;2023-03-09T18:14:28;91969.41;;;0.96
72405;BMP280;60395;52.020;113.548;2023-03-09T18:17:31;91977.25;;;1.02
72405;BMP280;60395;52.020;113.548;2023-03-09T18:20:35;91977.22;;;1.00
72405;BMP280;60395;52.020;113.548;2023-03-09T18:23:39;91968.03;;;0.89
72405;BMP280;60395;52.020;113.548;2023-03-09T18:26:42;91976.47;;;0.92